createdAt,value
2018-09-29T00:00:41.643Z,6.13
2018-09-29T00:03:13.888Z,7.23
2018-09-29T00:05:46.089Z,6.23
2018-09-29T00:08:18.006Z,7.03
2018-09-29T00:10:51.009Z,6.67
2018-09-29T00:13:23.099Z,6.07
2018-09-29T00:15:55.312Z,5.80
2018-09-29T00:18:28.227Z,6.23
2018-09-29T00:21:00.492Z,6.07
2018-09-29T00:23:33.949Z,5.97
2018-09-29T00:26:06.263Z,5.73
2018-09-29T00:28:38.473Z,6.17
2018-09-29T00:33:43.676Z,6.80
2018-09-29T00:36:16.972Z,6.33
2018-09-29T00:38:50.823Z,7.40
2018-09-29T00:41:22.894Z,6.57
2018-09-29T00:43:54.350Z,6.33
2018-09-29T00:46:26.436Z,6.67
2018-09-29T00:48:58.524Z,7.20
2018-09-29T00:51:30.704Z,6.80
2018-09-29T00:54:02.771Z,6.80
2018-09-29T00:56:35.051Z,6.73
2018-09-29T00:59:07.296Z,6.90
2018-09-29T01:01:38.904Z,6.93
2018-09-29T01:04:10.677Z,7.00
2018-09-29T01:06:42.855Z,7.60
2018-09-29T01:09:14.930Z,7.57
2018-09-29T01:11:47.003Z,6.80
2018-09-29T01:14:18.952Z,6.77
2018-09-29T01:16:51.105Z,7.17
2018-09-29T01:19:22.779Z,7.17
2018-09-29T01:21:54.443Z,6.87
2018-09-29T01:24:26.452Z,6.73
2018-09-29T01:26:58.780Z,6.47
2018-09-29T01:29:30.447Z,6.27
2018-09-29T01:32:02.841Z,7.07
2018-09-29T01:34:35.062Z,7.30
2018-09-29T01:37:07.035Z,6.97
2018-09-29T01:39:38.971Z,7.67
2018-09-29T01:42:11.732Z,7.30
2018-09-29T01:44:43.738Z,7.23
2018-09-29T01:47:15.543Z,6.73
2018-09-29T01:49:47.475Z,6.70
2018-09-29T01:52:19.243Z,7.20
2018-09-29T01:54:51.188Z,6.70
2018-09-29T01:57:22.986Z,6.63
2018-09-29T01:59:55.012Z,6.90
2018-09-29T02:02:26.839Z,7.43
2018-09-29T02:04:59.405Z,6.57
2018-09-29T02:07:31.505Z,6.47
2018-09-29T02:10:03.717Z,6.83
2018-09-29T02:12:35.653Z,7.00
2018-09-29T02:15:07.352Z,7.60
2018-09-29T02:17:39.111Z,6.70
2018-09-29T02:20:12.139Z,7.23
2018-09-29T02:22:44.319Z,6.63
2018-09-29T02:25:16.695Z,7.30
2018-09-29T02:27:49.366Z,6.57
2018-09-29T02:30:22.065Z,6.43
2018-09-29T02:32:54.051Z,7.30
2018-09-29T02:35:26.604Z,7.17
2018-09-29T02:37:58.759Z,6.77
2018-09-29T02:40:30.972Z,6.87
2018-09-29T02:43:03.406Z,7.23
2018-09-29T02:45:36.056Z,7.67
2018-09-29T02:48:07.954Z,7.00
2018-09-29T02:50:39.967Z,6.83
2018-09-29T02:53:12.049Z,7.00
2018-09-29T02:55:43.875Z,6.97
2018-09-29T02:58:15.510Z,7.20
2018-09-29T03:00:47.384Z,7.07
2018-09-29T03:03:19.259Z,7.43
2018-09-29T03:05:51.195Z,6.93
2018-09-29T03:08:23.243Z,7.53
2018-09-29T03:10:55.024Z,6.27
2018-09-29T03:13:27.381Z,7.23
2018-09-29T03:15:59.209Z,6.67
2018-09-29T03:18:31.372Z,6.47
2018-09-29T03:21:03.630Z,5.90
2018-09-29T03:23:35.486Z,6.87
2018-09-29T03:26:07.771Z,6.13
2018-09-29T03:28:40.847Z,6.47
2018-09-29T03:31:13.024Z,6.60
2018-09-29T03:33:44.876Z,7.07
2018-09-29T03:36:16.819Z,6.73
2018-09-29T03:38:49.493Z,7.07
2018-09-29T03:41:21.596Z,6.30
2018-09-29T03:43:53.551Z,6.87
2018-09-29T03:46:25.827Z,7.13
2018-09-29T03:48:57.913Z,7.93
2018-09-29T03:51:30.510Z,6.93
2018-09-29T03:54:02.578Z,6.67
2018-09-29T03:56:34.762Z,7.90
2018-09-29T03:59:06.773Z,7.63
2018-09-29T04:01:38.727Z,6.93
2018-09-29T04:04:11.069Z,7.67
2018-09-29T04:06:43.077Z,7.87
2018-09-29T04:09:16.038Z,6.80
2018-09-29T04:11:47.773Z,7.20
2018-09-29T04:14:19.676Z,7.40
2018-09-29T04:16:51.487Z,7.37
2018-09-29T04:19:23.499Z,6.87
2018-09-29T04:21:55.494Z,7.00
2018-09-29T04:24:27.541Z,6.93
2018-09-29T04:26:59.544Z,6.63
2018-09-29T04:29:31.900Z,7.03
2018-09-29T04:32:03.827Z,6.73
2018-09-29T04:34:35.918Z,6.77
2018-09-29T04:37:08.240Z,7.33
2018-09-29T04:39:40.278Z,6.93
2018-09-29T04:42:12.235Z,6.60
2018-09-29T04:44:44.181Z,7.23
2018-09-29T04:47:16.451Z,6.97
2018-09-29T04:49:48.315Z,7.60
2018-09-29T04:52:20.113Z,8.10
2018-09-29T04:54:52.045Z,6.80
2018-09-29T04:57:24.450Z,6.87
2018-09-29T04:59:56.682Z,7.00
2018-09-29T05:02:28.761Z,6.87
2018-09-29T05:05:31.647Z,7.17
2018-09-29T05:08:03.653Z,7.17
2018-09-29T05:10:35.859Z,6.63
2018-09-29T05:13:08.170Z,7.07
2018-09-29T05:15:40.990Z,7.40
2018-09-29T05:18:12.974Z,10.47
2018-09-29T05:20:45.072Z,18.43
2018-09-29T05:23:17.764Z,20.37
2018-09-29T05:25:50.044Z,13.60
2018-09-29T05:28:22.313Z,9.53
2018-09-29T05:30:54.451Z,8.37
2018-09-29T05:33:26.411Z,7.70
2018-09-29T05:35:58.425Z,6.77
2018-09-29T05:38:30.490Z,6.97
2018-09-29T05:41:02.568Z,6.83
2018-09-29T05:43:34.799Z,7.40
2018-09-29T05:46:07.061Z,7.43
2018-09-29T05:48:39.487Z,7.33
2018-09-29T05:51:11.406Z,8.47
2018-09-29T05:53:43.546Z,8.50
2018-09-29T05:56:16.244Z,7.80
2018-09-29T05:58:48.225Z,7.27
2018-09-29T06:01:20.270Z,7.50
2018-09-29T06:03:52.225Z,7.20
2018-09-29T06:06:24.446Z,7.63
2018-09-29T06:08:56.431Z,7.17
2018-09-29T06:11:28.657Z,7.33
2018-09-29T06:14:00.875Z,8.30
2018-09-29T06:16:33.041Z,7.30
2018-09-29T06:19:05.924Z,8.03
2018-09-29T06:21:38.578Z,7.83
2018-09-29T06:24:10.803Z,6.97
2018-09-29T06:26:43.033Z,7.43
2018-09-29T06:29:15.372Z,7.47
2018-09-29T06:31:48.527Z,7.50
2018-09-29T06:34:23.056Z,6.93
2018-09-29T06:36:56.526Z,7.50
2018-09-29T06:39:28.723Z,7.50
2018-09-29T06:42:01.180Z,7.30
2018-09-29T06:44:33.910Z,8.30
2018-09-29T06:47:06.473Z,7.80
2018-09-29T06:49:38.950Z,8.23
2018-09-29T06:52:11.479Z,8.23
2018-09-29T06:54:44.152Z,8.13
2018-09-29T06:57:16.444Z,10.27
2018-09-29T06:59:48.944Z,10.27
2018-09-29T07:02:21.532Z,8.77
2018-09-29T07:04:53.938Z,8.37
2018-09-29T07:07:27.482Z,8.30
2018-09-29T07:10:00.423Z,8.17
2018-09-29T07:12:32.977Z,7.97
2018-09-29T07:15:05.504Z,7.90
2018-09-29T07:17:38.106Z,7.77
2018-09-29T07:20:11.224Z,7.93
2018-09-29T07:22:43.927Z,8.50
2018-09-29T07:25:15.989Z,7.37
2018-09-29T07:27:48.162Z,8.30
2018-09-29T07:30:20.664Z,8.33
2018-09-29T07:32:53.119Z,8.73
2018-09-29T07:35:25.347Z,9.23
2018-09-29T07:37:57.848Z,8.47
2018-09-29T07:40:30.054Z,9.50
2018-09-29T07:43:02.395Z,9.87
2018-09-29T07:45:34.518Z,10.10
2018-09-29T07:48:06.711Z,9.87
2018-09-29T07:50:38.574Z,10.97
2018-09-29T07:53:11.145Z,9.90
2018-09-29T07:55:43.447Z,10.20
2018-09-29T07:58:15.445Z,10.80
2018-09-29T08:00:47.526Z,9.77
2018-09-29T08:03:19.546Z,11.20
2018-09-29T08:05:51.797Z,11.13
2018-09-29T08:08:23.692Z,11.30
2018-09-29T08:10:55.919Z,10.93
2018-09-29T08:13:28.046Z,10.27
2018-09-29T08:16:00.058Z,10.27
2018-09-29T08:18:32.414Z,9.70
2018-09-29T08:21:04.669Z,9.83
2018-09-29T08:23:36.909Z,10.30
2018-09-29T08:26:09.013Z,10.77
2018-09-29T08:28:40.947Z,9.53
2018-09-29T08:31:12.830Z,9.30
2018-09-29T08:33:45.132Z,8.33
2018-09-29T08:36:17.190Z,8.43
2018-09-29T08:38:49.431Z,9.10
2018-09-29T08:41:23.206Z,8.63
2018-09-29T08:43:55.321Z,9.17
2018-09-29T08:46:27.689Z,8.20
2018-09-29T08:48:59.994Z,8.07
2018-09-29T08:51:32.014Z,7.83
2018-09-29T08:54:04.321Z,7.90
2018-09-29T08:56:36.515Z,8.83
2018-09-29T08:59:09.081Z,8.20
2018-09-29T09:01:41.467Z,8.33
2018-09-29T09:04:14.228Z,7.63
2018-09-29T09:06:46.684Z,7.77
2018-09-29T09:09:18.705Z,6.73
2018-09-29T09:11:51.174Z,7.70
2018-09-29T09:14:23.483Z,7.27
2018-09-29T09:16:55.718Z,7.00
2018-09-29T09:19:28.417Z,7.90
2018-09-29T09:22:01.140Z,7.40
2018-09-29T09:24:33.851Z,7.60
2018-09-29T09:27:05.770Z,8.33
2018-09-29T09:29:38.230Z,7.73
2018-09-29T09:32:10.195Z,7.47
2018-09-29T09:34:42.872Z,8.57
2018-09-29T09:37:15.269Z,7.57
2018-09-29T09:39:47.323Z,7.90
2018-09-29T09:42:19.476Z,7.33
2018-09-29T09:44:52.014Z,8.43
2018-09-29T09:47:24.669Z,7.77
2018-09-29T09:49:56.759Z,7.70
2018-09-29T09:52:28.860Z,7.30
2018-09-29T09:55:00.527Z,7.07
2018-09-29T09:57:32.757Z,7.07
2018-09-29T10:00:05.502Z,7.90
2018-09-29T10:02:47.195Z,7.70
2018-09-29T10:05:19.675Z,5.93
2018-09-29T10:07:51.914Z,4.57
2018-09-29T10:10:24.238Z,4.77
2018-09-29T10:12:56.848Z,6.77
2018-09-29T10:15:29.088Z,16.17
2018-09-29T10:18:01.268Z,8.53
2018-09-29T10:20:34.257Z,5.53
2018-09-29T10:23:06.621Z,5.00
2018-09-29T10:25:38.841Z,4.60
2018-09-29T10:28:10.646Z,7.47
2018-09-29T10:30:42.437Z,5.00
2018-09-29T10:33:14.616Z,4.40
2018-09-29T10:35:46.810Z,4.70
2018-09-29T10:38:19.109Z,4.33
2018-09-29T10:40:51.483Z,4.93
2018-09-29T10:43:23.577Z,5.47
2018-09-29T10:45:55.957Z,4.60
2018-09-29T10:48:27.701Z,4.77
2018-09-29T10:51:00.063Z,4.40
2018-09-29T10:53:32.627Z,5.13
2018-09-29T10:56:04.991Z,3.97
2018-09-29T10:58:37.574Z,5.10
2018-09-29T11:01:09.892Z,55.43
2018-09-29T11:03:41.982Z,73.67
2018-09-29T11:06:13.734Z,16.97
2018-09-29T11:08:46.051Z,5.40
2018-09-29T11:11:18.139Z,3.80
2018-09-29T11:13:50.778Z,3.80
2018-09-29T11:16:23.209Z,5.10
2018-09-29T11:18:55.589Z,4.07
2018-09-29T11:21:27.787Z,3.93
2018-09-29T11:23:59.478Z,4.30
2018-09-29T11:26:31.457Z,3.20
2018-09-29T11:29:03.892Z,4.00
2018-09-29T11:31:36.158Z,4.50
2018-09-29T11:34:08.337Z,3.77
2018-09-29T11:36:40.418Z,4.00
2018-09-29T11:39:13.497Z,4.10
2018-09-29T11:41:45.209Z,4.43
2018-09-29T11:44:17.154Z,4.97
2018-09-29T11:46:50.121Z,3.87
2018-09-29T11:49:22.611Z,5.00
2018-09-29T11:51:54.934Z,5.33
2018-09-29T11:54:27.234Z,5.57
2018-09-29T11:56:59.319Z,4.57
2018-09-29T11:59:31.276Z,5.67
2018-09-29T12:02:04.229Z,5.20
2018-09-29T12:04:36.565Z,5.13
2018-09-29T12:07:08.788Z,4.90
2018-09-29T12:09:41.119Z,5.10
2018-09-29T12:12:13.423Z,4.93
2018-09-29T12:14:46.016Z,4.57
2018-09-29T12:17:17.714Z,5.00
2018-09-29T12:19:49.803Z,4.13
2018-09-29T12:22:22.020Z,4.60
2018-09-29T12:24:55.034Z,4.90
2018-09-29T12:27:27.487Z,3.87
2018-09-29T12:29:59.936Z,3.83
2018-09-29T12:32:32.377Z,3.80
2018-09-29T12:35:06.821Z,4.17
2018-09-29T12:37:38.843Z,4.20
2018-09-29T12:40:10.970Z,6.23
2018-09-29T12:42:43.352Z,7.07
2018-09-29T12:45:15.635Z,4.13
2018-09-29T12:47:47.942Z,3.80
2018-09-29T12:50:20.198Z,3.87
2018-09-29T12:52:52.117Z,3.80
2018-09-29T12:55:24.601Z,3.80
2018-09-29T12:57:57.161Z,4.33
2018-09-29T13:00:29.586Z,4.00
2018-09-29T13:03:01.840Z,4.00
2018-09-29T13:05:34.098Z,3.83
2018-09-29T13:08:13.140Z,4.10
2018-09-29T13:10:51.331Z,4.00
2018-09-29T13:13:24.220Z,3.80
2018-09-29T13:15:56.736Z,3.50
2018-09-29T13:18:29.389Z,4.50
2018-09-29T13:21:01.701Z,3.60
2018-09-29T13:23:35.035Z,3.50
2018-09-29T13:26:07.427Z,3.43
2018-09-29T13:28:39.868Z,3.80
2018-09-29T13:31:12.287Z,3.37
2018-09-29T13:33:45.212Z,3.43
2018-09-29T13:36:19.105Z,3.63
2018-09-29T13:38:51.405Z,3.67
2018-09-29T13:41:23.626Z,3.10
2018-09-29T13:43:56.615Z,3.70
2018-09-29T13:46:28.733Z,3.20
2018-09-29T13:49:00.585Z,3.30
2018-09-29T13:51:33.405Z,3.30
2018-09-29T13:54:05.924Z,3.40
2018-09-29T13:56:38.885Z,3.30
2018-09-29T13:59:11.263Z,3.63
2018-09-29T14:01:43.584Z,4.20
2018-09-29T14:04:15.901Z,3.40
2018-09-29T14:06:48.588Z,2.87
2018-09-29T14:09:20.487Z,3.87
2018-09-29T14:11:52.717Z,3.43
2018-09-29T14:14:24.683Z,6.07
2018-09-29T14:16:57.208Z,3.00
2018-09-29T14:19:29.290Z,2.97
2018-09-29T14:22:01.701Z,2.93
2018-09-29T14:24:33.729Z,3.20
2018-09-29T14:27:05.358Z,3.27
2018-09-29T14:29:38.263Z,3.20
2018-09-29T14:32:10.702Z,3.03
2018-09-29T14:34:43.215Z,4.40
2018-09-29T14:37:15.655Z,5.90
2018-09-29T14:39:48.290Z,6.30
2018-09-29T14:42:20.724Z,6.20
2018-09-29T14:44:52.517Z,6.60
2018-09-29T14:47:24.951Z,7.17
2018-09-29T14:49:57.540Z,8.00
2018-09-29T14:52:30.057Z,7.90
2018-09-29T14:55:02.343Z,8.63
2018-09-29T14:57:34.583Z,8.23
2018-09-29T15:00:07.155Z,8.90
2018-09-29T15:02:39.008Z,9.00
2018-09-29T15:05:11.752Z,8.53
2018-09-29T15:07:44.356Z,8.93
2018-09-29T15:10:16.785Z,9.47
2018-09-29T15:12:49.110Z,10.00
2018-09-29T15:15:21.315Z,10.63
2018-09-29T15:17:53.834Z,10.20
2018-09-29T15:20:26.303Z,9.93
2018-09-29T15:22:58.622Z,9.17
2018-09-29T15:25:31.162Z,10.30
2018-09-29T15:28:03.265Z,9.47
2018-09-29T15:30:35.784Z,8.97
2018-09-29T15:33:07.952Z,9.53
2018-09-29T15:35:40.610Z,9.90
2018-09-29T15:38:12.369Z,9.70
2018-09-29T15:40:44.711Z,10.07
2018-09-29T15:43:16.880Z,10.13
2018-09-29T15:45:48.946Z,10.10
2018-09-29T15:48:21.159Z,9.97
2018-09-29T15:50:53.701Z,9.73
2018-09-29T15:53:26.248Z,9.90
2018-09-29T15:55:58.065Z,9.17
2018-09-29T15:58:30.239Z,9.13
2018-09-29T16:01:02.819Z,9.70
2018-09-29T16:03:34.856Z,10.00
2018-09-29T16:06:06.836Z,9.47
2018-09-29T16:08:39.360Z,9.50
2018-09-29T16:11:12.326Z,11.97
2018-09-29T16:13:43.989Z,10.77
2018-09-29T16:16:16.356Z,9.90
2018-09-29T16:18:48.669Z,10.00
2018-09-29T16:21:21.841Z,10.27
2018-09-29T16:23:54.164Z,10.00
2018-09-29T16:26:26.555Z,9.33
2018-09-29T16:28:59.224Z,9.60
2018-09-29T16:31:31.523Z,8.77
2018-09-29T16:34:04.717Z,11.03
2018-09-29T16:36:37.019Z,10.30
2018-09-29T16:39:14.113Z,10.20
2018-09-29T16:41:46.056Z,10.53
2018-09-29T16:44:17.730Z,10.50
2018-09-29T16:46:50.882Z,10.40
2018-09-29T16:49:23.553Z,11.87
2018-09-29T16:51:55.848Z,11.60
2018-09-29T16:54:27.969Z,11.13
2018-09-29T16:57:00.650Z,13.07
2018-09-29T16:59:33.264Z,12.60
2018-09-29T17:02:05.977Z,13.13
2018-09-29T17:04:38.319Z,11.70
2018-09-29T17:07:10.709Z,12.37
2018-09-29T17:09:43.142Z,12.57
2018-09-29T17:12:15.110Z,13.07
2018-09-29T17:14:47.530Z,12.23
2018-09-29T17:17:19.759Z,11.70
2018-09-29T17:19:51.428Z,10.40
2018-09-29T17:22:23.911Z,10.23
2018-09-29T17:24:56.469Z,10.17
2018-09-29T17:27:30.169Z,9.60
2018-09-29T17:30:02.939Z,10.00
2018-09-29T17:32:35.525Z,10.00
2018-09-29T17:35:07.855Z,10.50
2018-09-29T17:37:39.778Z,8.70
2018-09-29T17:40:12.475Z,8.53
2018-09-29T17:42:44.400Z,9.40
2018-09-29T17:45:16.681Z,9.00
2018-09-29T17:47:49.101Z,9.87
2018-09-29T17:50:21.534Z,10.73
2018-09-29T17:52:53.312Z,11.67
2018-09-29T17:55:25.809Z,10.27
2018-09-29T17:57:57.884Z,10.10
2018-09-29T18:00:30.763Z,10.50
2018-09-29T18:03:03.298Z,9.97
2018-09-29T18:05:35.957Z,10.10
2018-09-29T18:08:08.358Z,10.43
2018-09-29T18:10:41.014Z,10.20
2018-09-29T18:13:13.508Z,10.77
2018-09-29T18:15:46.336Z,11.93
2018-09-29T18:18:19.706Z,11.33
2018-09-29T18:20:52.550Z,10.37
2018-09-29T18:23:25.184Z,11.20
2018-09-29T18:25:56.904Z,12.03
2018-09-29T18:28:29.499Z,11.73
2018-09-29T18:31:01.674Z,11.57
2018-09-29T18:33:33.872Z,12.63
2018-09-29T18:36:06.346Z,13.03
2018-09-29T18:38:39.146Z,13.00
2018-09-29T18:41:11.346Z,12.00
2018-09-29T18:43:43.903Z,14.13
2018-09-29T18:46:16.203Z,14.87
2018-09-29T18:48:48.356Z,15.23
2018-09-29T18:51:21.090Z,14.40
2018-09-29T18:53:53.441Z,15.97
2018-09-29T18:56:25.763Z,16.97
2018-09-29T18:58:58.215Z,17.80
2018-09-29T19:01:30.692Z,18.50
2018-09-29T19:04:02.971Z,18.27
2018-09-29T19:06:35.836Z,16.50
2018-09-29T19:09:12.152Z,18.97
2018-09-29T19:11:45.017Z,17.03
2018-09-29T19:14:17.455Z,17.60
2018-09-29T19:16:49.669Z,18.77
2018-09-29T19:19:21.984Z,18.70
2018-09-29T19:21:54.185Z,20.10
2018-09-29T19:24:26.632Z,19.47
2018-09-29T19:26:58.861Z,22.23
2018-09-29T19:29:31.136Z,21.13
2018-09-29T19:32:03.586Z,20.13
2018-09-29T19:34:36.014Z,23.63
2018-09-29T19:37:08.180Z,20.17
2018-09-29T19:39:40.823Z,19.83
2018-09-29T19:42:13.105Z,24.83
2018-09-29T19:44:45.307Z,24.00
2018-09-29T19:47:17.696Z,22.67
2018-09-29T19:49:49.924Z,20.53
2018-09-29T19:52:22.831Z,22.70
2018-09-29T19:54:54.902Z,22.30
2018-09-29T19:57:27.414Z,22.53
2018-09-29T19:59:59.502Z,21.60
2018-09-29T20:02:31.457Z,20.43
2018-09-29T20:05:04.374Z,20.67
2018-09-29T20:07:37.503Z,22.33
2018-09-29T20:10:09.874Z,21.50
2018-09-29T20:12:42.057Z,23.20
2018-09-29T20:15:14.434Z,20.43
2018-09-29T20:17:46.772Z,21.50
2018-09-29T20:20:19.051Z,24.03
2018-09-29T20:22:51.325Z,22.93
2018-09-29T20:25:23.796Z,22.60
2018-09-29T20:27:55.936Z,20.10
2018-09-29T20:30:30.027Z,22.37
2018-09-29T20:33:02.288Z,20.80
2018-09-29T20:35:34.436Z,23.10
2018-09-29T20:38:06.961Z,23.30
2018-09-29T20:40:39.080Z,23.13
2018-09-29T20:43:11.462Z,28.23
2018-09-29T20:45:43.478Z,23.87
2018-09-29T20:48:16.493Z,24.30
2018-09-29T20:50:48.883Z,22.60
2018-09-29T20:53:22.016Z,24.53
2018-09-29T20:55:54.416Z,22.73
2018-09-29T20:58:26.646Z,25.50
2018-09-29T21:00:58.822Z,27.67
2018-09-29T21:03:31.019Z,29.23
2018-09-29T21:06:03.699Z,28.87
2018-09-29T21:08:36.306Z,26.13
2018-09-29T21:11:08.602Z,27.47
2018-09-29T21:13:41.162Z,28.87
2018-09-29T21:16:13.605Z,26.97
2018-09-29T21:18:45.641Z,26.20
2018-09-29T21:21:17.814Z,25.77
2018-09-29T21:23:50.001Z,24.07
2018-09-29T21:26:22.534Z,24.40
2018-09-29T21:28:55.196Z,23.07
2018-09-29T21:31:27.799Z,21.77
2018-09-29T21:34:00.399Z,23.33
2018-09-29T21:36:32.956Z,24.27
2018-09-29T21:39:06.790Z,23.83
2018-09-29T21:41:38.834Z,22.97
2018-09-29T21:44:10.869Z,25.10
2018-09-29T21:46:42.916Z,25.07
2018-09-29T21:49:14.983Z,23.87
2018-09-29T21:51:47.585Z,25.97
2018-09-29T21:54:20.212Z,22.27
2018-09-29T21:56:52.499Z,23.37
2018-09-29T21:59:24.419Z,23.50
2018-09-29T22:01:56.610Z,25.83
2018-09-29T22:04:29.070Z,23.93
2018-09-29T22:07:01.268Z,24.83
2018-09-29T22:09:33.435Z,23.93
2018-09-29T22:12:05.735Z,25.17
2018-09-29T22:14:38.230Z,24.77
2018-09-29T22:17:10.238Z,26.63
2018-09-29T22:19:42.284Z,25.20
2018-09-29T22:22:15.726Z,25.40
2018-09-29T22:24:47.638Z,25.17
2018-09-29T22:27:19.741Z,25.50
2018-09-29T22:29:51.990Z,25.43
2018-09-29T22:32:24.105Z,25.67
2018-09-29T22:34:56.346Z,25.23
2018-09-29T22:37:28.316Z,25.67
2018-09-29T22:40:01.039Z,25.33
2018-09-29T22:42:33.275Z,26.17
2018-09-29T22:45:05.289Z,26.60
2018-09-29T22:47:37.551Z,26.67
2018-09-29T22:50:09.825Z,25.57
2018-09-29T22:52:42.305Z,24.83
2018-09-29T22:55:14.838Z,26.37
2018-09-29T22:57:46.989Z,27.97
2018-09-29T23:00:18.954Z,26.77
2018-09-29T23:02:51.387Z,26.43
2018-09-29T23:05:23.760Z,26.80
2018-09-29T23:07:56.396Z,24.30
2018-09-29T23:10:28.600Z,27.73
2018-09-29T23:13:00.688Z,27.90
2018-09-29T23:15:33.029Z,28.33
2018-09-29T23:18:05.278Z,29.63
2018-09-29T23:20:37.698Z,27.00
2018-09-29T23:23:09.965Z,27.10
2018-09-29T23:25:42.104Z,29.47
2018-09-29T23:28:14.501Z,29.57
2018-09-29T23:30:47.121Z,29.23
2018-09-29T23:33:19.063Z,29.33
2018-09-29T23:35:51.542Z,29.10
2018-09-29T23:38:23.615Z,28.73
2018-09-29T23:40:55.700Z,28.83
2018-09-29T23:43:27.875Z,28.40
2018-09-29T23:45:59.680Z,27.53
2018-09-29T23:48:31.615Z,26.80
2018-09-29T23:51:03.850Z,27.40
2018-09-29T23:53:35.689Z,26.90
2018-09-29T23:56:08.818Z,27.00
2018-09-29T23:58:41.214Z,27.73
